Terminal Aerodrome Forecast
Issued by NWS

Home | Current Version | Previous Version | Text Only | Print | Product List | Glossary On
Versions: 1 2 3 4 5 6 7 8 9 10 11 12 13 14 15 16 17 18 19 20 21 22 23 24
000
FTUS43 KDTX 232339
TAFYIP
TAF
KYIP 232339Z 2400/2424 30007KT P6SM SCT045 OVC070
     FM240100 28005KT P6SM VCSH SCT025 BKN040 OVC100
      TEMPO 2402/2405 6SM BR BKN025 OVC040
     FM240500 28005KT 6SM BR VCSH OVC018
     FM240900 28005KT 4SM BR OVC009
     FM241400 32005KT 6SM -SHRA BKN015 OVC025
     FM241900 01007KT P6SM BKN030 BKN050=

USA.gov is the U.S. government's official web portal to all federal, state and local government web resources and services.